Time;durP1;ratioP1;P1;durP2;ratioP2;P2;SDS_P1;SDS_P2;PMS_P1;PMS_P2;Temp;Humidity;BMP_temperature;BMP_pressure;BME280_temperature;BME280_humidity;BME280_pressure;Samples;Min_cycle;Max_cycle;Signal;HPM_P1;HPM_P2
2022/12/21 00:01:16;;;;;;;0.60;0.60;;;;;;;;;;5061512;28;20029;-82
2022/12/21 00:03:42;;;;;;;1.65;1.55;;;;;;;;;;5061132;28;20028;-81
2022/12/21 00:06:09;;;;;;;1.50;1.27;;;;;;;;;;5057889;28;20037;-79
2022/12/21 00:08:42;;;;;;;0.73;0.73;;;;;;;;;;5062822;28;20492;-80
2022/12/21 00:11:09;;;;;;;2.00;1.27;;;;;;;;;;5064704;28;20070;-80
2022/12/21 00:13:34;;;;;;;0.82;0.82;;;;;;;;;;5060422;28;20115;-80
2022/12/21 00:16:06;;;;;;;1.83;1.50;;;;;;;;;;5055756;28;20075;-79
2022/12/21 00:18:33;;;;;;;1.52;1.38;;;;;;;;;;5068489;28;20025;-80
2022/12/21 00:21:04;;;;;;;1.38;1.35;;;;;;;;;;5060502;28;20036;-81
2022/12/21 00:23:30;;;;;;;1.02;0.75;;;;;;;;;;5083377;28;20029;-81
2022/12/21 00:25:59;;;;;;;0.63;0.63;;;;;;;;;;5060610;28;20050;-79
2022/12/21 00:28:24;;;;;;;1.65;1.33;;;;;;;;;;5063325;28;20476;-78
2022/12/21 00:30:50;;;;;;;0.63;0.63;;;;;;;;;;5061088;28;20086;-81
2022/12/21 00:33:15;;;;;;;0.68;0.68;;;;;;;;;;5063533;28;20036;-81
2022/12/21 00:35:51;;;;;;;2.55;0.77;;;;;;;;;;5058729;28;20025;-80
2022/12/21 00:38:18;;;;;;;0.65;0.65;;;;;;;;;;5064372;28;20526;-80
2022/12/21 00:40:44;;;;;;;1.40;1.20;;;;;;;;;;5063046;28;20029;-79
2022/12/21 00:43:09;;;;;;;1.20;1.10;;;;;;;;;;5061982;28;20028;-80
2022/12/21 00:45:35;;;;;;;0.50;0.50;;;;;;;;;;5067520;28;20529;-82
2022/12/21 00:48:00;;;;;;;0.65;0.65;;;;;;;;;;5067319;28;20029;-81
2022/12/21 00:50:26;;;;;;;4.38;3.15;;;;;;;;;;5066106;28;20111;-80
2022/12/21 00:52:51;;;;;;;2.13;1.92;;;;;;;;;;5063355;28;20024;-80
2022/12/21 00:55:17;;;;;;;8.82;3.60;;;;;;;;;;5059221;28;20491;-82
2022/12/21 00:57:42;;;;;;;3.85;2.28;;;;;;;;;;5066993;28;20107;-81
2022/12/21 01:00:09;;;;;;;10.95;2.58;;;;;;;;;;5060606;28;20059;-83
2022/12/21 01:02:35;;;;;;;5.07;2.22;;;;;;;;;;5064304;28;20077;-83
2022/12/21 01:05:01;;;;;;;2.50;1.80;;;;;;;;;;5061622;28;20037;-81
2022/12/21 01:07:27;;;;;;;2.22;1.40;;;;;;;;;;5067264;28;20041;-82
2022/12/21 01:09:52;;;;;;;1.17;1.08;;;;;;;;;;5063068;28;20431;-82
2022/12/21 01:12:18;;;;;;;1.10;1.00;;;;;;;;;;5061808;28;20356;-81
2022/12/21 01:14:43;;;;;;;6.90;1.30;;;;;;;;;;5061987;28;20056;-82
2022/12/21 01:17:08;;;;;;;0.60;0.60;;;;;;;;;;5066473;28;20028;-81
2022/12/21 01:19:34;;;;;;;0.90;0.73;;;;;;;;;;5062273;28;20005;-81
2022/12/21 01:21:59;;;;;;;0.95;0.50;;;;;;;;;;5061976;28;20172;-81
2022/12/21 01:24:25;;;;;;;0.98;0.73;;;;;;;;;;5060195;28;20095;-81
2022/12/21 01:26:50;;;;;;;0.52;0.52;;;;;;;;;;5063643;28;20047;-81
2022/12/21 01:29:16;;;;;;;0.32;0.32;;;;;;;;;;5062469;28;20457;-82
2022/12/21 01:31:41;;;;;;;0.85;0.47;;;;;;;;;;5057765;28;20115;-81
2022/12/21 01:34:06;;;;;;;1.75;1.00;;;;;;;;;;5064292;28;20376;-82
2022/12/21 01:36:32;;;;;;;1.58;0.85;;;;;;;;;;5063638;28;20032;-81
2022/12/21 01:38:57;;;;;;;3.78;1.33;;;;;;;;;;5064492;28;20032;-81
2022/12/21 01:41:25;;;;;;;0.85;0.85;;;;;;;;;;5060900;28;20461;-80
2022/12/21 01:44:02;;;;;;;0.35;0.35;;;;;;;;;;5065980;28;20036;-82
2022/12/21 01:46:41;;;;;;;3.75;0.98;;;;;;;;;;5059050;28;20025;-81
2022/12/21 01:49:21;;;;;;;0.60;0.60;;;;;;;;;;5064163;28;20473;-80
2022/12/21 01:51:52;;;;;;;2.15;1.33;;;;;;;;;;5067512;28;20495;-81
2022/12/21 01:54:27;;;;;;;1.27;1.17;;;;;;;;;;5058273;28;20377;-81
2022/12/21 01:56:58;;;;;;;0.77;0.77;;;;;;;;;;5059668;28;20037;-83
2022/12/21 01:59:28;;;;;;;0.75;0.50;;;;;;;;;;5063485;28;20149;-82
2022/12/21 02:01:55;;;;;;;0.57;0.57;;;;;;;;;;5060582;28;20025;-79
2022/12/21 02:04:21;;;;;;;1.30;1.20;;;;;;;;;;5058476;28;20032;-83
2022/12/21 02:06:58;;;;;;;1.40;1.30;;;;;;;;;;5057410;28;20518;-81
2022/12/21 02:09:31;;;;;;;2.35;0.82;;;;;;;;;;5055212;28;20025;-82
2022/12/21 02:11:59;;;;;;;1.13;1.02;;;;;;;;;;5064161;28;20391;-81
2022/12/21 02:14:26;;;;;;;4.20;2.45;;;;;;;;;;5058189;28;20051;-82
2022/12/21 02:17:16;;;;;;;0.90;0.88;;;;;;;;;;5061924;28;20029;-82
2022/12/21 02:20:02;;;;;;;0.60;0.60;;;;;;;;;;5061334;28;20017;-81
2022/12/21 02:22:53;;;;;;;1.65;1.33;;;;;;;;;;5063295;28;20058;-82
2022/12/21 02:25:59;;;;;;;2.53;1.30;;;;;;;;;;5054649;28;20049;-83
2022/12/21 02:28:30;;;;;;;1.33;0.85;;;;;;;;;;5057132;28;20035;-83
2022/12/21 02:31:24;;;;;;;1.25;1.15;;;;;;;;;;5061837;28;20028;-83
2022/12/21 02:34:01;;;;;;;1.10;0.73;;;;;;;;;;5063290;28;20103;-83
2022/12/21 02:36:35;;;;;;;0.70;0.60;;;;;;;;;;5059702;28;20111;-84
2022/12/21 02:39:19;;;;;;;0.80;0.80;;;;;;;;;;5057318;28;20079;-82
2022/12/21 02:42:02;;;;;;;0.60;0.60;;;;;;;;;;5062053;28;20492;-84
2022/12/21 02:44:50;;;;;;;0.40;0.40;;;;;;;;;;5060145;28;20035;-81
2022/12/21 02:47:46;;;;;;;0.50;0.50;;;;;;;;;;5060039;28;20037;-83
2022/12/21 02:50:14;;;;;;;2.67;1.25;;;;;;;;;;5059543;28;20036;-82
2022/12/21 02:53:06;;;;;;;1.00;0.95;;;;;;;;;;5063828;28;20040;-82
2022/12/21 02:55:31;;;;;;;1.00;0.88;;;;;;;;;;5063071;28;20063;-82
2022/12/21 02:58:14;;;;;;;2.28;1.42;;;;;;;;;;5070732;28;20392;-82
2022/12/21 03:00:55;;;;;;;2.22;1.30;;;;;;;;;;5070309;28;20032;-82
2022/12/21 03:03:54;;;;;;;1.40;1.30;;;;;;;;;;5064535;28;20028;-80
2022/12/21 03:06:38;;;;;;;1.48;1.38;;;;;;;;;;5064046;28;20024;-83
2022/12/21 03:09:03;;;;;;;0.55;0.55;;;;;;;;;;5070009;28;20504;-81
2022/12/21 03:11:55;;;;;;;1.20;1.15;;;;;;;;;;5062509;28;20032;-82
2022/12/21 03:14:27;;;;;;;1.50;1.40;;;;;;;;;;5058038;28;20381;-83
2022/12/21 03:17:00;;;;;;;0.60;0.60;;;;;;;;;;5064574;28;20503;-81
2022/12/21 03:19:31;;;;;;;0.63;0.63;;;;;;;;;;5060750;28;20024;-81
2022/12/21 03:22:08;;;;;;;1.20;1.13;;;;;;;;;;5068177;28;20061;-81
2022/12/21 03:24:42;;;;;;;0.93;0.93;;;;;;;;;;5060767;28;20415;-83
2022/12/21 03:27:17;;;;;;;0.95;0.45;;;;;;;;;;5066142;28;20095;-82
2022/12/21 03:29:57;;;;;;;1.45;0.40;;;;;;;;;;5060816;28;20042;-80
2022/12/21 03:32:33;;;;;;;0.50;0.50;;;;;;;;;;5065868;28;20059;-81
2022/12/21 03:35:00;;;;;;;1.00;0.73;;;;;;;;;;5068631;28;20052;-81
2022/12/21 03:37:33;;;;;;;0.93;0.88;;;;;;;;;;5070548;28;20016;-80
2022/12/21 03:40:17;;;;;;;0.80;0.63;;;;;;;;;;5069291;28;20085;-82
2022/12/21 03:42:52;;;;;;;0.32;0.32;;;;;;;;;;5061439;28;20435;-81
2022/12/21 03:45:24;;;;;;;0.73;0.73;;;;;;;;;;5063112;28;20020;-82
2022/12/21 03:48:15;;;;;;;0.70;0.70;;;;;;;;;;5064161;28;20029;-82
2022/12/21 03:50:45;;;;;;;0.47;0.43;;;;;;;;;;5057674;28;20473;-81
2022/12/21 03:53:21;;;;;;;;;;;;;;;;;;5072863;28;20078;-80
2022/12/21 03:55:49;;;;;;;0.20;0.20;;;;;;;;;;5060356;28;19956;-83
2022/12/21 03:58:15;;;;;;;0.68;0.68;;;;;;;;;;5067725;28;20042;-79
2022/12/21 04:00:49;;;;;;;0.80;0.80;;;;;;;;;;5058319;28;20051;-81
2022/12/21 04:03:29;;;;;;;1.35;1.20;;;;;;;;;;5066095;28;20383;-83
2022/12/21 04:06:01;;;;;;;0.70;0.70;;;;;;;;;;5062388;28;20040;-81
2022/12/21 04:08:27;;;;;;;1.52;0.85;;;;;;;;;;5060330;28;20063;-80
2022/12/21 04:10:53;;;;;;;3.05;1.10;;;;;;;;;;5066081;28;20024;-80
2022/12/21 04:13:18;;;;;;;0.73;0.73;;;;;;;;;;5058986;28;20047;-81
2022/12/21 04:21:11;;;;;;;3.30;1.88;;;;;;;;;;5062984;28;20097;-82
2022/12/21 04:29:04;;;;;;;1.67;1.58;;;;;;;;;;5057802;28;20040;-84
2022/12/21 04:31:30;;;;;;;1.55;1.10;;;;;;;;;;5056871;28;20032;-84
2022/12/21 04:33:55;;;;;;;1.27;1.08;;;;;;;;;;5057241;28;20542;-85
2022/12/21 04:39:04;;;;;;;1.80;1.70;;;;;;;;;;5060456;28;20092;-83
2022/12/21 04:41:30;;;;;;;1.50;1.40;;;;;;;;;;5059385;28;20100;-82
2022/12/21 04:43:55;;;;;;;2.35;1.95;;;;;;;;;;5055104;28;20484;-82
2022/12/21 04:46:21;;;;;;;3.45;2.10;;;;;;;;;;5059275;28;20029;-83
2022/12/21 04:48:46;;;;;;;1.45;1.15;;;;;;;;;;5052881;28;20534;-80
2022/12/21 04:51:17;;;;;;;1.02;1.02;;;;;;;;;;5060171;28;20033;-83
2022/12/21 04:53:43;;;;;;;3.22;1.83;;;;;;;;;;5055098;28;20468;-82
2022/12/21 04:56:09;;;;;;;0.88;0.88;;;;;;;;;;5066616;28;20035;-82
2022/12/21 04:58:35;;;;;;;1.05;0.98;;;;;;;;;;5054627;28;20104;-81
2022/12/21 05:01:02;;;;;;;0.60;0.57;;;;;;;;;;5063729;28;20107;-81
2022/12/21 05:03:27;;;;;;;1.10;0.73;;;;;;;;;;5054775;28;20028;-83
2022/12/21 05:05:53;;;;;;;2.53;1.67;;;;;;;;;;5057131;28;20111;-85
2022/12/21 05:08:18;;;;;;;4.43;3.00;;;;;;;;;;5060918;28;20499;-82
2022/12/21 05:10:44;;;;;;;2.25;1.08;;;;;;;;;;5060894;28;20021;-80
2022/12/21 05:13:09;;;;;;;2.83;0.63;;;;;;;;;;5053018;28;20103;-80
2022/12/21 05:15:36;;;;;;;1.98;1.85;;;;;;;;;;5058382;28;20033;-81
2022/12/21 05:18:02;;;;;;;1.92;1.65;;;;;;;;;;5060765;28;20465;-82
2022/12/21 05:20:27;;;;;;;2.67;2.17;;;;;;;;;;5060627;28;20114;-78
2022/12/21 05:22:53;;;;;;;0.73;0.70;;;;;;;;;;5058338;28;20560;-81
2022/12/21 05:25:18;;;;;;;0.95;0.93;;;;;;;;;;5059329;28;20025;-85
2022/12/21 05:27:43;;;;;;;1.63;1.52;;;;;;;;;;5058018;28;20032;-82
2022/12/21 05:30:09;;;;;;;2.33;1.70;;;;;;;;;;5054064;28;20393;-81
2022/12/21 05:32:35;;;;;;;5.75;4.28;;;;;;;;;;5052929;28;20078;-81
2022/12/21 05:35:00;;;;;;;3.50;2.55;;;;;;;;;;5051873;28;20274;-83
2022/12/21 05:37:27;;;;;;;0.95;0.95;;;;;;;;;;5052565;28;20031;-83
2022/12/21 05:39:52;;;;;;;1.50;1.10;;;;;;;;;;5061900;28;20491;-82
2022/12/21 05:42:18;;;;;;;2.38;1.83;;;;;;;;;;5055993;28;20032;-84
2022/12/21 05:44:43;;;;;;;0.85;0.85;;;;;;;;;;5054682;28;20033;-84
2022/12/21 05:47:08;;;;;;;3.15;1.85;;;;;;;;;;5057446;28;20024;-82
2022/12/21 05:49:34;;;;;;;3.35;1.98;;;;;;;;;;5063292;28;20028;-82
2022/12/21 05:51:59;;;;;;;2.20;1.98;;;;;;;;;;5054524;28;20053;-83
2022/12/21 05:54:26;;;;;;;4.35;2.63;;;;;;;;;;5059690;28;20510;-82
2022/12/21 05:56:51;;;;;;;9.25;3.45;;;;;;;;;;5056129;28;20021;-80
2022/12/21 05:59:16;;;;;;;7.20;3.25;;;;;;;;;;5061410;28;20025;-86
2022/12/21 06:01:42;;;;;;;2.72;1.83;;;;;;;;;;5056825;28;20025;-84
2022/12/21 06:04:07;;;;;;;5.10;2.33;;;;;;;;;;5058774;28;20036;-83
2022/12/21 06:06:33;;;;;;;3.25;1.75;;;;;;;;;;5064884;28;20059;-81
2022/12/21 06:08:58;;;;;;;3.92;2.65;;;;;;;;;;5052232;28;20055;-86
2022/12/21 06:11:24;;;;;;;2.55;2.33;;;;;;;;;;5060114;28;20025;-83
2022/12/21 06:13:51;;;;;;;4.53;3.03;;;;;;;;;;5055737;28;20036;-83
2022/12/21 06:16:19;;;;;;;1.73;1.58;;;;;;;;;;5056899;28;20036;-81
2022/12/21 06:18:45;;;;;;;2.13;1.80;;;;;;;;;;5056631;28;20016;-84
2022/12/21 06:21:12;;;;;;;4.90;2.42;;;;;;;;;;5050079;28;20145;-85
2022/12/21 06:23:39;;;;;;;0.80;0.80;;;;;;;;;;5054223;28;20024;-80
2022/12/21 06:26:06;;;;;;;1.48;0.70;;;;;;;;;;5057201;28;20094;-82
2022/12/21 06:28:32;;;;;;;1.17;1.05;;;;;;;;;;5068936;28;20548;-84
2022/12/21 06:31:06;;;;;;;1.70;1.55;;;;;;;;;;5069425;28;20098;-82
2022/12/21 06:33:32;;;;;;;1.05;1.05;;;;;;;;;;5058304;28;21092;-85
2022/12/21 06:35:57;;;;;;;0.90;0.90;;;;;;;;;;5056327;28;20033;-84
2022/12/21 06:38:23;;;;;;;2.75;1.45;;;;;;;;;;5061074;28;20025;-84
2022/12/21 06:41:16;;;;;;;2.25;1.42;;;;;;;;;;5065649;28;20384;-86
2022/12/21 06:43:42;;;;;;;0.82;0.82;;;;;;;;;;5055207;28;20053;-87
2022/12/21 06:46:10;;;;;;;5.53;2.30;;;;;;;;;;5057785;28;20033;-87
2022/12/21 06:48:37;;;;;;;4.65;1.63;;;;;;;;;;5068383;28;20040;-85
2022/12/21 06:51:06;;;;;;;5.32;2.30;;;;;;;;;;5060927;28;20037;-84
2022/12/21 06:53:34;;;;;;;3.58;1.92;;;;;;;;;;5059848;28;20434;-83
2022/12/21 06:56:06;;;;;;;1.33;1.23;;;;;;;;;;5062875;28;20479;-80
2022/12/21 06:58:32;;;;;;;10.10;5.93;;;;;;;;;;5062244;28;20444;-84
2022/12/21 07:01:12;;;;;;;8.65;6.07;;;;;;;;;;5062579;28;20496;-84
2022/12/21 07:03:38;;;;;;;;;;;;;;;;;;5058325;28;20068;-85
2022/12/21 07:06:05;;;;;;;3.35;2.28;;;;;;;;;;5055272;28;19948;-86
2022/12/21 07:08:30;;;;;;;1.63;1.52;;;;;;;;;;5062574;28;20076;-82
2022/12/21 07:11:01;;;;;;;4.63;3.55;;;;;;;;;;5057010;28;20049;-82
2022/12/21 07:13:27;;;;;;;4.22;2.90;;;;;;;;;;5057836;28;20477;-83
2022/12/21 07:15:54;;;;;;;4.03;3.33;;;;;;;;;;5058512;28;20465;-83
2022/12/21 07:18:20;;;;;;;2.38;1.85;;;;;;;;;;5063284;28;20091;-83
2022/12/21 07:20:46;;;;;;;6.35;3.13;;;;;;;;;;5061255;28;20429;-82
2022/12/21 07:23:12;;;;;;;12.43;3.53;;;;;;;;;;5062254;28;20036;-84
2022/12/21 07:25:37;;;;;;;5.03;4.38;;;;;;;;;;5059658;28;20388;-86
2022/12/21 07:28:03;;;;;;;5.90;4.57;;;;;;;;;;5058538;28;20028;-86
2022/12/21 07:30:28;;;;;;;7.90;4.88;;;;;;;;;;5059174;28;20029;-84
2022/12/21 07:32:54;;;;;;;7.13;4.28;;;;;;;;;;5051554;28;20020;-87
2022/12/21 07:35:21;;;;;;;5.88;4.00;;;;;;;;;;5054066;28;20120;-88
2022/12/21 07:37:48;;;;;;;4.60;4.18;;;;;;;;;;5062553;28;20021;-82
2022/12/21 07:40:15;;;;;;;6.55;4.13;;;;;;;;;;5059624;28;20021;-83
2022/12/21 07:42:41;;;;;;;5.05;4.50;;;;;;;;;;5056458;28;20032;-83
2022/12/21 07:45:09;;;;;;;6.53;4.10;;;;;;;;;;5064426;28;20077;-85
2022/12/21 07:47:35;;;;;;;6.63;4.35;;;;;;;;;;5060922;28;20021;-87
2022/12/21 07:50:01;;;;;;;6.25;4.22;;;;;;;;;;5062983;28;20032;-86
2022/12/21 07:52:26;;;;;;;11.45;4.82;;;;;;;;;;5058658;28;20029;-87
2022/12/21 07:54:52;;;;;;;6.47;4.03;;;;;;;;;;5052432;28;20056;-86
2022/12/21 07:57:17;;;;;;;9.25;5.05;;;;;;;;;;5060916;28;20372;-85
2022/12/21 07:59:43;;;;;;;7.80;6.88;;;;;;;;;;5059670;28;20100;-86
2022/12/21 08:02:08;;;;;;;9.45;5.90;;;;;;;;;;5062112;28;20016;-87
2022/12/21 08:04:34;;;;;;;7.80;5.97;;;;;;;;;;5062412;28;20028;-84
2022/12/21 08:06:59;;;;;;;4.45;3.65;;;;;;;;;;5063390;28;20036;-84
2022/12/21 08:09:24;;;;;;;8.70;5.60;;;;;;;;;;5060267;28;20031;-85
2022/12/21 08:11:50;;;;;;;8.27;5.55;;;;;;;;;;5065619;28;20029;-85
2022/12/21 08:14:15;;;;;;;18.20;4.35;;;;;;;;;;5066699;28;20055;-86
2022/12/21 08:16:41;;;;;;;6.22;4.28;;;;;;;;;;5058342;28;20542;-83
2022/12/21 08:19:06;;;;;;;4.47;4.07;;;;;;;;;;5058441;28;20020;-87
2022/12/21 08:21:32;;;;;;;9.02;4.95;;;;;;;;;;5064255;28;20119;-84
2022/12/21 08:23:57;;;;;;;6.70;4.75;;;;;;;;;;5059305;28;20511;-86
2022/12/21 08:26:23;;;;;;;6.95;5.63;;;;;;;;;;5061157;28;20041;-85
2022/12/21 08:28:48;;;;;;;7.30;6.13;;;;;;;;;;5058483;28;20098;-85
2022/12/21 08:31:16;;;;;;;7.55;6.10;;;;;;;;;;5065313;28;20074;-84
2022/12/21 08:33:42;;;;;;;8.27;5.53;;;;;;;;;;5058371;28;20023;-83
2022/12/21 08:36:16;;;;;;;15.02;7.97;;;;;;;;;;5054705;28;20028;-84
2022/12/21 08:38:42;;;;;;;7.28;4.97;;;;;;;;;;5075955;28;20027;-83
2022/12/21 08:41:07;;;;;;;12.52;7.22;;;;;;;;;;5058585;28;20370;-85
2022/12/21 08:43:36;;;;;;;9.60;5.97;;;;;;;;;;5065142;28;20052;-84
2022/12/21 08:46:04;;;;;;;15.27;6.85;;;;;;;;;;5057554;28;20388;-85
2022/12/21 08:48:29;;;;;;;5.90;3.58;;;;;;;;;;5056944;28;20384;-85
2022/12/21 08:50:55;;;;;;;8.90;6.57;;;;;;;;;;5059814;28;20024;-86
2022/12/21 08:53:20;;;;;;;7.03;5.22;;;;;;;;;;5062142;28;20096;-86
2022/12/21 08:55:49;;;;;;;6.85;4.85;;;;;;;;;;5059504;28;20052;-84
2022/12/21 08:58:15;;;;;;;7.10;5.15;;;;;;;;;;5057426;28;20029;-85
2022/12/21 09:00:42;;;;;;;7.50;4.55;;;;;;;;;;5058127;28;20794;-84
2022/12/21 09:03:08;;;;;;;5.55;4.28;;;;;;;;;;5068472;28;20169;-85
2022/12/21 09:05:34;;;;;;;6.22;5.57;;;;;;;;;;5058590;28;20112;-86
2022/12/21 09:08:00;;;;;;;8.45;6.55;;;;;;;;;;5056026;28;20128;-87
2022/12/21 09:10:26;;;;;;;9.70;5.78;;;;;;;;;;5063300;28;20016;-87
2022/12/21 09:12:51;;;;;;;7.15;6.00;;;;;;;;;;5057048;28;20125;-86
2022/12/21 09:15:16;;;;;;;15.95;5.50;;;;;;;;;;5057674;28;20054;-86
2022/12/21 09:17:42;;;;;;;11.38;4.50;;;;;;;;;;5050151;28;20037;-86
2022/12/21 09:20:08;;;;;;;4.78;4.32;;;;;;;;;;5057477;28;20035;-86
2022/12/21 09:22:33;;;;;;;5.55;4.10;;;;;;;;;;5056279;28;20039;-86
2022/12/21 09:24:59;;;;;;;10.05;5.68;;;;;;;;;;5057086;28;20123;-90
2022/12/21 09:27:24;;;;;;;7.82;5.15;;;;;;;;;;5054990;28;20020;-87
2022/12/21 09:29:49;;;;;;;6.97;5.47;;;;;;;;;;5055177;28;20071;-85
2022/12/21 09:32:15;;;;;;;6.25;4.93;;;;;;;;;;5050907;28;20036;-87
2022/12/21 09:34:41;;;;;;;5.80;4.88;;;;;;;;;;5055563;28;20376;-86
2022/12/21 09:37:06;;;;;;;10.95;6.57;;;;;;;;;;5057405;28;20472;-87
2022/12/21 09:39:32;;;;;;;7.95;5.25;;;;;;;;;;5063933;28;20032;-86
2022/12/21 09:42:31;;;;;;;5.88;4.78;;;;;;;;;;5055447;28;20457;-87
2022/12/21 09:45:18;;;;;;;10.23;5.85;;;;;;;;;;5030968;28;20041;-88
2022/12/21 09:47:57;;;;;;;9.02;4.47;;;;;;;;;;5049577;28;20039;-86
2022/12/21 09:50:41;;;;;;;5.25;4.63;;;;;;;;;;5051219;28;20436;-87
2022/12/21 09:53:21;;;;;;;9.07;5.95;;;;;;;;;;5051115;28;20034;-88
2022/12/21 09:55:52;;;;;;;5.07;4.55;;;;;;;;;;5050808;28;20038;-87
2022/12/21 09:58:38;;;;;;;7.18;5.88;;;;;;;;;;5050548;28;20021;-88
2022/12/21 10:01:37;;;;;;;7.00;4.68;;;;;;;;;;5058045;28;20033;-87
2022/12/21 10:04:31;;;;;;;6.47;4.80;;;;;;;;;;5058316;28;20112;-88
2022/12/21 10:07:15;;;;;;;20.90;5.90;;;;;;;;;;5053215;28;20028;-88
2022/12/21 10:10:20;;;;;;;7.25;4.78;;;;;;;;;;5052314;28;20049;-88
2022/12/21 10:13:06;;;;;;;8.15;5.28;;;;;;;;;;5053895;28;20037;-87
2022/12/21 10:15:47;;;;;;;19.67;6.05;;;;;;;;;;5046628;28;20120;-86
2022/12/21 10:18:29;;;;;;;9.95;6.05;;;;;;;;;;5056551;28;20404;-86
2022/12/21 10:21:08;;;;;;;7.20;4.35;;;;;;;;;;5054958;28;20081;-87
2022/12/21 10:23:48;;;;;;;5.82;4.80;;;;;;;;;;5059304;28;20081;-87
2022/12/21 10:26:17;;;;;;;7.65;5.30;;;;;;;;;;5058422;28;20028;-87
2022/12/21 10:28:57;;;;;;;7.15;5.57;;;;;;;;;;5050841;28;20068;-86
2022/12/21 10:31:33;;;;;;;8.02;4.38;;;;;;;;;;5054066;28;20033;-86
2022/12/21 10:33:59;;;;;;;7.70;5.28;;;;;;;;;;5058018;28;20388;-87
2022/12/21 10:36:36;;;;;;;7.95;5.10;;;;;;;;;;5050609;28;20503;-86
2022/12/21 10:39:03;;;;;;;7.07;4.85;;;;;;;;;;5056250;28;20665;-87
2022/12/21 10:41:35;;;;;;;10.38;5.32;;;;;;;;;;5059135;28;20469;-86
2022/12/21 10:44:02;;;;;;;5.45;4.78;;;;;;;;;;5053894;28;20601;-87
2022/12/21 10:46:37;;;;;;;7.45;5.50;;;;;;;;;;5050567;28;20028;-90
2022/12/21 10:49:15;;;;;;;5.15;4.15;;;;;;;;;;5064646;28;20037;-87
2022/12/21 10:51:40;;;;;;;4.47;3.55;;;;;;;;;;5052978;28;20388;-86
2022/12/21 10:54:09;;;;;;;8.30;4.38;;;;;;;;;;5051025;28;20029;-85
2022/12/21 10:56:46;;;;;;;5.43;3.67;;;;;;;;;;5054744;28;20023;-85
2022/12/21 10:59:20;;;;;;;6.32;4.60;;;;;;;;;;5052723;28;20047;-87
2022/12/21 11:01:46;;;;;;;9.38;4.90;;;;;;;;;;5055294;28;20055;-86
2022/12/21 11:04:21;;;;;;;7.88;4.45;;;;;;;;;;5053581;28;20053;-86
2022/12/21 11:07:05;;;;;;;5.07;4.50;;;;;;;;;;5056356;28;20021;-86
2022/12/21 11:09:33;;;;;;;11.13;5.05;;;;;;;;;;5053100;28;20460;-87
2022/12/21 11:12:21;;;;;;;11.68;5.10;;;;;;;;;;5061298;28;20032;-87
2022/12/21 11:14:48;;;;;;;11.48;5.05;;;;;;;;;;5053185;28;20025;-87
2022/12/21 11:17:25;;;;;;;5.57;4.80;;;;;;;;;;5052541;28;20072;-85
2022/12/21 11:20:04;;;;;;;7.93;5.93;;;;;;;;;;5061022;28;20020;-86
2022/12/21 11:22:30;;;;;;;7.38;6.60;;;;;;;;;;5053433;28;20064;-85
2022/12/21 11:24:59;;;;;;;11.00;5.80;;;;;;;;;;5059228;28;20481;-87
2022/12/21 11:27:32;;;;;;;9.57;7.15;;;;;;;;;;5055619;28;20032;-85
2022/12/21 11:30:16;;;;;;;5.55;4.88;;;;;;;;;;5060354;28;20124;-87
2022/12/21 11:32:45;;;;;;;10.60;4.82;;;;;;;;;;5057739;28;20052;-87
2022/12/21 11:35:18;;;;;;;7.90;5.63;;;;;;;;;;5061631;28;20107;-86
2022/12/21 11:37:46;;;;;;;4.97;4.22;;;;;;;;;;5053652;28;20469;-88
2022/12/21 11:40:11;;;;;;;8.63;5.00;;;;;;;;;;5060885;28;20028;-87
2022/12/21 11:42:53;;;;;;;9.07;5.57;;;;;;;;;;5059758;28;20099;-88
2022/12/21 11:45:21;;;;;;;7.63;5.55;;;;;;;;;;5061094;28;20729;-87
2022/12/21 11:48:06;;;;;;;8.82;5.35;;;;;;;;;;5062532;28;20025;-88
2022/12/21 11:51:06;;;;;;;6.25;4.70;;;;;;;;;;5053562;28;20464;-89
2022/12/21 11:53:42;;;;;;;7.13;4.10;;;;;;;;;;5052419;28;20031;-87
2022/12/21 11:56:25;;;;;;;7.20;5.18;;;;;;;;;;5061174;28;20132;-87
2022/12/21 11:58:59;;;;;;;10.10;6.18;;;;;;;;;;5057899;28;20017;-87
2022/12/21 12:01:40;;;;;;;10.60;6.50;;;;;;;;;;5053609;28;20025;-87
2022/12/21 12:04:20;;;;;;;7.32;5.13;;;;;;;;;;5061574;28;20414;-87
2022/12/21 12:07:13;;;;;;;7.43;5.15;;;;;;;;;;5058290;28;20082;-87
2022/12/21 12:09:39;;;;;;;16.80;4.97;;;;;;;;;;5063785;28;20514;-86
2022/12/21 12:12:22;;;;;;;10.73;4.93;;;;;;;;;;5057911;28;20107;-87
2022/12/21 12:14:54;;;;;;;7.55;4.20;;;;;;;;;;5060296;28;20111;-88
2022/12/21 12:17:25;;;;;;;5.95;5.25;;;;;;;;;;5060952;28;20082;-88
2022/12/21 12:20:12;;;;;;;7.68;6.10;;;;;;;;;;5054905;28;20112;-87
2022/12/21 12:22:47;;;;;;;9.02;6.45;;;;;;;;;;5060911;28;20028;-87
2022/12/21 12:25:34;;;;;;;6.55;4.95;;;;;;;;;;5060711;28;20034;-85
2022/12/21 12:28:18;;;;;;;6.72;4.20;;;;;;;;;;5057781;28;20451;-85
2022/12/21 12:31:04;;;;;;;8.00;4.78;;;;;;;;;;5057291;28;20151;-85
2022/12/21 12:33:33;;;;;;;13.93;6.03;;;;;;;;;;5055960;28;20078;-85
2022/12/21 12:36:14;;;;;;;12.45;6.38;;;;;;;;;;5057548;28;20032;-85
2022/12/21 12:39:09;;;;;;;6.82;4.93;;;;;;;;;;5053601;28;20005;-85
2022/12/21 12:41:44;;;;;;;5.70;4.45;;;;;;;;;;5055843;28;20453;-84
2022/12/21 12:44:38;;;;;;;8.07;4.32;;;;;;;;;;5055027;28;20539;-84
2022/12/21 12:47:47;;;;;;;8.85;5.00;;;;;;;;;;5058727;28;20029;-85
2022/12/21 12:50:33;;;;;;;11.52;4.28;;;;;;;;;;5057161;28;20059;-82
2022/12/21 12:53:22;;;;;;;6.57;5.97;;;;;;;;;;5060248;28;20032;-83
2022/12/21 12:55:57;;;;;;;6.90;5.10;;;;;;;;;;5063772;28;20063;-81
2022/12/21 12:58:42;;;;;;;13.90;6.03;;;;;;;;;;5056586;28;20614;-82
2022/12/21 13:01:37;;;;;;;6.60;4.85;;;;;;;;;;5064334;28;20025;-83
2022/12/21 13:04:21;;;;;;;9.60;5.35;;;;;;;;;;5052054;28;20102;-83
2022/12/21 13:06:53;;;;;;;6.90;4.10;;;;;;;;;;5065752;28;20028;-83
2022/12/21 13:09:42;;;;;;;9.00;5.30;;;;;;;;;;5058549;28;20020;-83
2022/12/21 13:12:39;;;;;;;5.05;4.35;;;;;;;;;;5057425;28;20111;-83
2022/12/21 13:15:20;;;;;;;8.90;6.10;;;;;;;;;;5060304;28;20536;-83
2022/12/21 13:17:51;;;;;;;9.52;5.35;;;;;;;;;;5056728;28;20020;-82
2022/12/21 13:20:20;;;;;;;10.50;4.95;;;;;;;;;;5058693;28;20424;-84
2022/12/21 13:22:53;;;;;;;6.95;4.55;;;;;;;;;;5057968;28;20376;-83
2022/12/21 13:25:25;;;;;;;10.77;4.30;;;;;;;;;;5068602;28;20103;-84
2022/12/21 13:27:55;;;;;;;5.72;4.00;;;;;;;;;;5059067;28;20729;-85
2022/12/21 13:30:22;;;;;;;7.72;5.70;;;;;;;;;;5053623;28;20055;-83
2022/12/21 13:32:53;;;;;;;6.75;3.70;;;;;;;;;;5055869;28;20025;-83
2022/12/21 13:35:27;;;;;;;8.32;4.22;;;;;;;;;;5049929;28;20538;-83
2022/12/21 13:38:02;;;;;;;3.53;2.72;;;;;;;;;;5057396;28;20025;-83
2022/12/21 13:40:43;;;;;;;4.57;3.08;;;;;;;;;;5058143;28;20472;-83
2022/12/21 13:43:15;;;;;;;3.83;3.38;;;;;;;;;;5054602;28;20107;-85
2022/12/21 13:45:59;;;;;;;9.55;4.95;;;;;;;;;;5062431;28;20554;-86
2022/12/21 13:49:00;;;;;;;9.38;4.95;;;;;;;;;;5056293;28;20033;-86
2022/12/21 13:51:49;;;;;;;5.50;3.72;;;;;;;;;;5060389;28;20029;-85
2022/12/21 13:54:42;;;;;;;2.00;1.58;;;;;;;;;;5064988;28;20021;-84
2022/12/21 13:57:21;;;;;;;2.05;1.65;;;;;;;;;;5056084;28;20033;-84
2022/12/21 13:59:56;;;;;;;1.95;1.13;;;;;;;;;;5058355;28;20024;-84
2022/12/21 14:02:47;;;;;;;0.85;0.73;;;;;;;;;;5054839;28;20099;-83
2022/12/21 14:05:47;;;;;;;2.08;1.45;;;;;;;;;;5054494;28;20080;-85
2022/12/21 14:08:31;;;;;;;1.10;1.00;;;;;;;;;;5047729;28;20512;-84
2022/12/21 14:11:20;;;;;;;0.85;0.85;;;;;;;;;;5061054;28;20043;-85
2022/12/21 14:13:58;;;;;;;1.40;1.25;;;;;;;;;;5052949;28;20033;-84
2022/12/21 14:16:28;;;;;;;1.75;1.65;;;;;;;;;;5057494;28;20043;-84
2022/12/21 14:18:56;;;;;;;0.80;0.80;;;;;;;;;;5062558;28;20029;-86
2022/12/21 14:21:27;;;;;;;1.50;1.23;;;;;;;;;;5054202;28;20033;-86
2022/12/21 14:23:57;;;;;;;0.68;0.65;;;;;;;;;;5051571;28;20056;-86
2022/12/21 14:26:31;;;;;;;0.50;0.50;;;;;;;;;;5053129;28;20021;-85
2022/12/21 14:29:11;;;;;;;1.42;1.05;;;;;;;;;;5054981;28;20025;-86
2022/12/21 14:31:37;;;;;;;0.68;0.68;;;;;;;;;;5054174;28;20049;-86
2022/12/21 14:34:07;;;;;;;1.55;1.40;;;;;;;;;;5052571;28;20527;-85
2022/12/21 14:36:33;;;;;;;1.95;1.58;;;;;;;;;;5049045;28;20029;-83
2022/12/21 14:39:04;;;;;;;0.52;0.52;;;;;;;;;;5055325;28;20028;-84
2022/12/21 14:41:35;;;;;;;2.40;1.65;;;;;;;;;;5058551;28;20020;-84
2022/12/21 14:44:09;;;;;;;1.23;0.65;;;;;;;;;;5048637;28;20048;-84
2022/12/21 14:46:37;;;;;;;1.38;1.27;;;;;;;;;;5062231;28;20385;-85
2022/12/21 14:49:26;;;;;;;2.83;1.70;;;;;;;;;;5063145;28;20025;-85
2022/12/21 14:51:56;;;;;;;2.08;1.20;;;;;;;;;;5059374;28;20446;-85
2022/12/21 14:54:28;;;;;;;;;;;;;;;;;;5061226;28;20040;-86
2022/12/21 14:57:08;;;;;;;1.55;0.93;;;;;;;;;;5064208;28;19928;-84
2022/12/21 14:59:50;;;;;;;2.55;1.38;;;;;;;;;;5063722;28;20036;-84
2022/12/21 15:02:33;;;;;;;1.23;0.82;;;;;;;;;;5060479;28;20039;-85
2022/12/21 15:05:03;;;;;;;1.90;1.25;;;;;;;;;;5061168;28;20033;-86
2022/12/21 15:07:43;;;;;;;1.88;1.20;;;;;;;;;;5056635;28;20044;-84
2022/12/21 15:10:30;;;;;;;2.47;0.98;;;;;;;;;;5062080;28;20388;-85
2022/12/21 15:12:57;;;;;;;1.73;1.35;;;;;;;;;;5055736;28;20366;-86
2022/12/21 15:15:35;;;;;;;0.95;0.77;;;;;;;;;;5060944;28;20484;-86
2022/12/21 15:18:23;;;;;;;1.20;1.10;;;;;;;;;;5059179;28;20036;-86
2022/12/21 15:20:54;;;;;;;2.20;1.17;;;;;;;;;;5059863;28;20031;-87
2022/12/21 15:23:24;;;;;;;0.50;0.45;;;;;;;;;;5061784;28;20025;-86
2022/12/21 15:26:18;;;;;;;0.63;0.63;;;;;;;;;;5055104;28;20024;-82
2022/12/21 15:28:46;;;;;;;1.65;0.50;;;;;;;;;;5055424;28;20459;-81